Capitol Logistics 7312

Operating for MZN



KCLT
Charlotte/Douglas International Airport
Charlotte, North Carolina
KBWI
Baltimore/Washington International Thurgood Marshall Airport
Baltimore, Maryland

Activity Log

Date Flight Route Aircraft Duration
No Flights Yet

Route Details

Aircraft Information
Primary: Boeing 767-300BDSF
Backup: Boeing 757-200SF
Route Data
Distance: 314nm
Duration: 1h 30m
Recm'd Route: KILNS4 AUDII THHMP RAVNN6
Origin Wx: KCLT 141952Z 22011G16KT 10SM FEW065 SCT110 BKN150 BKN250 27/11 A2993 RMK AO2 SLP129 T02720111
Dest. Wx: KBWI 142019Z 00000KT 2SM -RA BR SCT008 SCT013 OVC055 15/13 A2997 RMK AO2 SFC VIS 5 P0001 T01500128
Notes: